createdAt,value
2022-11-19T00:01:15.979Z,4.40
2022-11-19T00:03:45.655Z,4.40
2022-11-19T00:06:18.234Z,4.40
2022-11-19T00:08:45.675Z,4.40
2022-11-19T00:11:15.090Z,4.50
2022-11-19T00:13:42.944Z,4.50
2022-11-19T00:16:12.502Z,4.50
2022-11-19T00:18:39.624Z,4.50
2022-11-19T00:21:12.056Z,4.50
2022-11-19T00:23:40.023Z,4.60
2022-11-19T00:26:12.795Z,4.60
2022-11-19T00:28:40.724Z,4.60
2022-11-19T00:31:09.859Z,4.60
2022-11-19T00:33:37.855Z,4.60
2022-11-19T00:36:07.383Z,4.60
2022-11-19T00:38:34.686Z,4.60
2022-11-19T00:41:01.738Z,4.60
2022-11-19T00:43:47.307Z,4.70
2022-11-19T00:46:20.388Z,4.70
2022-11-19T00:48:51.952Z,4.70
2022-11-19T00:51:19.515Z,4.70
2022-11-19T00:53:46.718Z,4.70
2022-11-19T00:56:17.265Z,4.70
2022-11-19T00:58:44.664Z,4.70
2022-11-19T01:01:12.729Z,4.70
2022-11-19T01:03:41.464Z,4.80
2022-11-19T01:06:09.807Z,4.80
2022-11-19T01:08:37.476Z,4.80
2022-11-19T01:11:07.226Z,4.80
2022-11-19T01:13:35.128Z,4.80
2022-11-19T01:16:21.896Z,4.80
2022-11-19T01:18:49.646Z,4.80
2022-11-19T01:21:17.675Z,4.80
2022-11-19T01:23:45.468Z,4.80
2022-11-19T01:26:12.957Z,4.80
2022-11-19T01:28:39.860Z,4.80
2022-11-19T01:31:18.312Z,4.80
2022-11-19T01:33:45.688Z,4.70
2022-11-19T01:36:15.433Z,4.70
2022-11-19T01:38:42.479Z,4.70
2022-11-19T01:41:09.896Z,4.60
2022-11-19T01:44:05.152Z,4.60
2022-11-19T01:46:37.182Z,4.60
2022-11-19T01:49:17.819Z,4.60
2022-11-19T01:51:55.794Z,4.60
2022-11-19T01:54:28.317Z,4.60
2022-11-19T01:56:57.937Z,4.60
2022-11-19T01:59:26.883Z,4.60
2022-11-19T02:01:53.592Z,4.60
2022-11-19T02:04:21.413Z,4.60
2022-11-19T02:06:48.232Z,4.60
2022-11-19T02:09:14.835Z,4.60
2022-11-19T02:11:44.442Z,4.70
2022-11-19T02:14:36.048Z,4.70
2022-11-19T02:17:27.435Z,4.70
2022-11-19T02:20:39.777Z,4.70
2022-11-19T02:23:48.929Z,4.70
2022-11-19T02:26:30.885Z,4.70
2022-11-19T02:29:09.800Z,4.70
2022-11-19T02:31:50.027Z,4.70
2022-11-19T02:34:57.914Z,4.70
2022-11-19T02:37:56.812Z,4.60
2022-11-19T02:40:40.348Z,4.60
2022-11-19T02:43:16.100Z,4.60
2022-11-19T02:46:14.064Z,4.60
2022-11-19T02:48:46.426Z,4.60
2022-11-19T02:51:15.481Z,4.60
2022-11-19T02:53:42.211Z,4.50
2022-11-19T02:56:13.058Z,4.50
2022-11-19T02:59:10.858Z,4.50
2022-11-19T03:02:00.941Z,4.60
2022-11-19T03:04:32.544Z,4.60
2022-11-19T03:07:07.864Z,4.60
2022-11-19T03:09:39.624Z,4.60
2022-11-19T03:12:32.598Z,4.60
2022-11-19T03:15:36.078Z,4.60
2022-11-19T03:18:14.669Z,4.60
2022-11-19T03:20:48.775Z,4.70
2022-11-19T03:23:23.855Z,4.70
2022-11-19T03:26:05.593Z,4.70
2022-11-19T03:28:36.812Z,4.70
2022-11-19T03:31:06.139Z,4.70
2022-11-19T03:33:40.053Z,4.60
2022-11-19T03:36:17.799Z,4.60
2022-11-19T03:38:49.105Z,4.60
2022-11-19T03:41:18.651Z,4.60
2022-11-19T03:43:52.805Z,4.60
2022-11-19T03:46:21.888Z,4.60
2022-11-19T03:48:52.252Z,4.60
2022-11-19T03:51:43.625Z,4.50
2022-11-19T03:54:10.651Z,4.50
2022-11-19T03:56:39.576Z,4.50
2022-11-19T03:59:08.984Z,4.50
2022-11-19T04:01:36.682Z,4.50
2022-11-19T04:04:22.626Z,4.50
2022-11-19T04:06:49.353Z,4.50
2022-11-19T04:09:16.071Z,4.60
2022-11-19T04:11:43.990Z,4.60
2022-11-19T04:14:10.991Z,4.60
2022-11-19T04:16:37.948Z,4.60
2022-11-19T04:19:04.624Z,4.60
2022-11-19T04:21:31.282Z,4.60
2022-11-19T04:23:57.975Z,4.60
2022-11-19T04:26:24.631Z,4.60
2022-11-19T04:28:51.379Z,4.60
2022-11-19T04:31:18.302Z,4.60
2022-11-19T04:33:45.136Z,4.60
2022-11-19T04:36:11.708Z,4.60
2022-11-19T04:38:38.432Z,4.60
2022-11-19T04:41:05.253Z,4.60
2022-11-19T04:43:31.990Z,4.50
2022-11-19T04:45:58.655Z,4.50
2022-11-19T04:48:25.312Z,4.50
2022-11-19T04:50:52.013Z,4.50
2022-11-19T04:53:18.841Z,4.40
2022-11-19T04:55:45.516Z,4.40
2022-11-19T04:58:12.361Z,4.40
2022-11-19T05:00:39.112Z,4.40
2022-11-19T05:03:05.768Z,4.30
2022-11-19T05:05:32.544Z,4.30
2022-11-19T05:07:59.267Z,4.30
2022-11-19T05:10:25.922Z,4.20
2022-11-19T05:12:52.512Z,4.20
2022-11-19T05:15:19.152Z,4.20
2022-11-19T05:17:45.856Z,4.10
2022-11-19T05:20:12.569Z,4.00
2022-11-19T05:22:39.327Z,4.00
2022-11-19T05:25:06.180Z,4.00
2022-11-19T05:27:32.864Z,3.90
2022-11-19T05:30:00.607Z,3.80
2022-11-19T05:32:27.321Z,3.80
2022-11-19T05:34:53.979Z,3.80
2022-11-19T05:37:20.619Z,3.70
2022-11-19T05:39:47.289Z,3.70
2022-11-19T05:42:14.012Z,3.70
2022-11-19T05:44:40.624Z,3.70
2022-11-19T05:47:07.256Z,3.70
2022-11-19T05:49:34.028Z,3.70
2022-11-19T05:52:00.654Z,3.60
2022-11-19T05:54:27.470Z,3.60
2022-11-19T05:56:54.108Z,3.50
2022-11-19T05:59:21.330Z,3.40
2022-11-19T06:01:48.514Z,3.40
2022-11-19T06:04:15.083Z,3.40
2022-11-19T06:06:41.950Z,3.30
2022-11-19T06:09:08.544Z,3.30
2022-11-19T06:11:47.748Z,3.20
2022-11-19T06:14:19.448Z,3.20
2022-11-19T06:16:46.192Z,3.20
2022-11-19T06:19:12.860Z,3.10
2022-11-19T06:21:39.624Z,3.10
2022-11-19T06:24:06.560Z,3.00
2022-11-19T06:26:33.532Z,3.00
2022-11-19T06:29:00.402Z,3.00
2022-11-19T06:31:27.320Z,3.00
2022-11-19T06:33:54.108Z,3.00
2022-11-19T06:36:21.499Z,3.00
2022-11-19T06:38:48.575Z,2.90
2022-11-19T06:41:15.453Z,2.90
2022-11-19T06:43:43.146Z,2.90
2022-11-19T06:46:13.822Z,2.90
2022-11-19T06:48:40.987Z,2.90
2022-11-19T06:51:08.306Z,2.80
2022-11-19T06:53:35.040Z,2.90
2022-11-19T06:56:06.760Z,2.80
2022-11-19T06:58:34.028Z,2.90
2022-11-19T07:01:00.949Z,3.00
2022-11-19T07:03:27.692Z,3.00
2022-11-19T07:05:55.798Z,3.00
2022-11-19T07:08:22.697Z,3.10
2022-11-19T07:10:49.382Z,3.20
2022-11-19T07:13:16.054Z,3.40
2022-11-19T07:15:43.201Z,3.60
2022-11-19T07:18:10.439Z,3.90
2022-11-19T07:20:37.197Z,4.20
2022-11-19T07:23:04.148Z,4.60
2022-11-19T07:25:30.708Z,5.00
2022-11-19T07:27:57.399Z,5.30
2022-11-19T07:30:24.085Z,5.60
2022-11-19T07:32:52.824Z,5.90
2022-11-19T07:35:19.443Z,6.20
2022-11-19T07:37:46.121Z,6.60
2022-11-19T07:40:14.883Z,7.00
2022-11-19T07:42:51.577Z,7.20
2022-11-19T07:45:20.735Z,7.50
2022-11-19T07:47:48.879Z,7.80
2022-11-19T07:50:17.078Z,8.10
2022-11-19T07:52:43.940Z,8.30
2022-11-19T07:55:10.630Z,8.60
2022-11-19T07:57:37.297Z,8.60
2022-11-19T08:00:06.002Z,8.40
2022-11-19T08:02:39.303Z,8.30
2022-11-19T08:05:05.969Z,8.20
2022-11-19T08:07:32.767Z,8.20
2022-11-19T08:09:59.544Z,8.20
2022-11-19T08:12:26.180Z,8.50
2022-11-19T08:14:52.946Z,8.70
2022-11-19T08:17:38.040Z,9.00
2022-11-19T08:20:05.262Z,9.30
2022-11-19T08:22:32.058Z,9.60
2022-11-19T08:24:58.712Z,9.80
2022-11-19T08:27:25.407Z,9.90
2022-11-19T08:29:52.153Z,10.00
2022-11-19T08:32:18.836Z,10.00
2022-11-19T08:34:45.509Z,10.00
2022-11-19T08:37:13.524Z,9.90
2022-11-19T08:39:40.715Z,9.80
2022-11-19T08:42:27.692Z,9.60
2022-11-19T08:44:55.658Z,9.60
2022-11-19T08:47:22.395Z,9.50
2022-11-19T08:49:49.076Z,9.40
2022-11-19T08:52:15.791Z,9.40
2022-11-19T08:54:42.521Z,9.40
2022-11-19T08:57:09.116Z,9.40
2022-11-19T08:59:35.896Z,9.50
2022-11-19T09:02:02.508Z,9.60
2022-11-19T09:04:29.213Z,9.60
2022-11-19T09:06:55.888Z,9.60
2022-11-19T09:09:22.670Z,9.50
2022-11-19T09:11:49.463Z,9.40
2022-11-19T09:14:16.391Z,9.30
2022-11-19T09:16:43.240Z,9.20
2022-11-19T09:19:09.895Z,9.20
2022-11-19T09:21:36.528Z,9.20
2022-11-19T09:24:03.473Z,9.10
2022-11-19T09:26:30.180Z,8.90
2022-11-19T09:28:56.790Z,8.80
2022-11-19T09:31:23.505Z,8.70
2022-11-19T09:33:51.306Z,8.60
2022-11-19T09:36:19.473Z,8.50
2022-11-19T09:38:47.268Z,8.40
2022-11-19T09:41:13.906Z,8.30
2022-11-19T09:44:02.392Z,8.30
2022-11-19T09:46:37.940Z,8.20
2022-11-19T09:49:10.680Z,8.20
2022-11-19T09:51:42.476Z,8.20
2022-11-19T09:54:19.148Z,8.40
2022-11-19T09:56:47.528Z,8.60
2022-11-19T09:59:25.373Z,8.60
2022-11-19T10:01:53.069Z,8.60
2022-11-19T10:04:23.554Z,8.80
2022-11-19T10:07:16.548Z,8.90
2022-11-19T10:09:49.189Z,8.80
2022-11-19T10:12:47.311Z,8.80
2022-11-19T10:15:25.983Z,9.00
2022-11-19T10:18:19.369Z,9.30
2022-11-19T10:20:54.946Z,9.60
2022-11-19T10:23:36.458Z,9.80
2022-11-19T10:26:09.503Z,9.80
2022-11-19T10:28:38.356Z,9.80
2022-11-19T10:31:13.151Z,9.80
2022-11-19T10:33:50.597Z,9.60
2022-11-19T10:36:42.943Z,9.50
2022-11-19T10:39:18.818Z,9.30
2022-11-19T10:41:49.559Z,9.00
2022-11-19T10:44:40.130Z,8.90
2022-11-19T10:47:20.461Z,8.80
2022-11-19T10:49:53.740Z,8.60
2022-11-19T10:53:01.298Z,8.40
2022-11-19T10:55:39.492Z,8.30
2022-11-19T10:58:34.951Z,8.20
2022-11-19T11:01:04.020Z,8.20
2022-11-19T11:03:41.823Z,8.20
2022-11-19T11:06:10.055Z,8.10
2022-11-19T11:08:56.311Z,8.10
2022-11-19T11:11:49.680Z,8.00
2022-11-19T11:14:41.172Z,8.00
2022-11-19T11:17:22.127Z,7.90
2022-11-19T11:20:03.979Z,7.80
2022-11-19T11:22:31.213Z,7.70
2022-11-19T11:25:04.241Z,7.60
2022-11-19T11:27:35.504Z,7.60
2022-11-19T11:30:14.110Z,7.60
2022-11-19T11:32:41.608Z,7.50
2022-11-19T11:35:38.647Z,7.50
2022-11-19T11:38:05.633Z,7.40
2022-11-19T11:40:32.367Z,7.50
2022-11-19T11:42:59.156Z,7.40
2022-11-19T11:45:32.839Z,7.40
2022-11-19T11:48:06.569Z,7.40
2022-11-19T11:50:35.409Z,7.40
2022-11-19T11:53:08.429Z,7.40
2022-11-19T11:55:35.988Z,7.50
2022-11-19T11:58:05.487Z,7.60
2022-11-19T12:00:42.678Z,7.70
2022-11-19T12:03:10.729Z,7.80
2022-11-19T12:05:54.494Z,7.80
2022-11-19T12:08:33.213Z,7.90
2022-11-19T12:11:11.856Z,8.00
2022-11-19T12:13:51.756Z,8.10
2022-11-19T12:16:37.724Z,8.30
2022-11-19T12:19:13.355Z,8.50
2022-11-19T12:21:59.548Z,8.70
2022-11-19T12:25:00.540Z,8.90
2022-11-19T12:27:41.115Z,8.90
2022-11-19T12:30:28.184Z,8.90
2022-11-19T12:33:22.422Z,8.80
2022-11-19T12:36:11.377Z,8.80
2022-11-19T12:39:06.975Z,8.80
2022-11-19T12:41:51.552Z,8.70
2022-11-19T12:44:46.091Z,8.70
2022-11-19T12:47:22.604Z,8.70
2022-11-19T12:49:56.382Z,8.60
2022-11-19T12:52:38.398Z,8.60
2022-11-19T12:56:08.885Z,8.60
2022-11-19T12:59:08.591Z,8.60
2022-11-19T13:01:41.405Z,8.60
2022-11-19T13:04:27.511Z,8.60
2022-11-19T13:07:10.284Z,8.70
2022-11-19T13:09:54.524Z,8.70
2022-11-19T13:12:26.476Z,8.70
2022-11-19T13:15:09.114Z,8.80
2022-11-19T13:17:44.375Z,9.00
2022-11-19T13:20:23.180Z,9.40
2022-11-19T13:22:53.294Z,9.80
2022-11-19T13:25:31.733Z,10.30
2022-11-19T13:28:01.428Z,10.50
2022-11-19T13:30:32.041Z,10.50
2022-11-19T13:33:30.731Z,10.40
2022-11-19T13:36:19.469Z,10.20
2022-11-19T13:38:57.002Z,9.90
2022-11-19T13:41:31.591Z,9.60
2022-11-19T13:44:17.958Z,9.40
2022-11-19T13:46:58.873Z,9.10
2022-11-19T13:49:37.772Z,8.80
2022-11-19T13:52:13.197Z,8.70
2022-11-19T13:54:41.262Z,8.80
2022-11-19T13:57:22.261Z,8.90
2022-11-19T13:59:49.937Z,9.00
2022-11-19T14:02:45.811Z,9.00
2022-11-19T14:05:50.219Z,8.90
2022-11-19T14:08:35.531Z,8.80
2022-11-19T14:11:23.137Z,8.70
2022-11-19T14:13:55.294Z,8.60
2022-11-19T14:16:59.804Z,8.50
2022-11-19T14:19:45.440Z,8.40
2022-11-19T14:23:11.244Z,8.30
2022-11-19T14:26:07.015Z,8.10
2022-11-19T14:28:44.496Z,8.00
2022-11-19T14:31:11.117Z,7.90
2022-11-19T14:33:47.772Z,7.90
2022-11-19T14:36:20.284Z,7.80
2022-11-19T14:38:54.134Z,7.70
2022-11-19T14:41:34.571Z,7.60
2022-11-19T14:44:13.063Z,7.50
2022-11-19T14:46:48.501Z,7.40
2022-11-19T14:49:23.057Z,7.40
2022-11-19T14:51:56.498Z,7.40
2022-11-19T14:54:38.250Z,7.30
2022-11-19T14:57:25.949Z,7.30
2022-11-19T14:59:58.739Z,7.30
2022-11-19T15:02:45.511Z,7.20
2022-11-19T15:05:34.362Z,7.20
2022-11-19T15:08:19.151Z,7.10
2022-11-19T15:10:47.671Z,7.00
2022-11-19T15:13:23.809Z,7.00
2022-11-19T15:15:57.080Z,6.90
2022-11-19T15:18:44.714Z,6.80
2022-11-19T15:21:14.260Z,6.80
2022-11-19T15:23:40.967Z,6.70
2022-11-19T15:26:35.238Z,6.60
2022-11-19T15:29:36.791Z,6.50
2022-11-19T15:32:25.590Z,6.40
2022-11-19T15:35:30.157Z,6.30
2022-11-19T15:38:31.447Z,6.20
2022-11-19T15:41:01.448Z,6.10
2022-11-19T15:43:41.016Z,6.00
2022-11-19T15:46:28.839Z,6.00
2022-11-19T15:49:26.611Z,5.90
2022-11-19T15:52:03.797Z,5.90
2022-11-19T15:54:33.372Z,5.80
2022-11-19T15:57:14.542Z,5.70
2022-11-19T15:59:41.928Z,5.70
2022-11-19T16:02:18.931Z,5.60
2022-11-19T16:04:48.300Z,5.60
2022-11-19T16:07:15.127Z,5.60
2022-11-19T16:09:41.792Z,5.50
2022-11-19T16:12:38.294Z,5.50
2022-11-19T16:16:03.958Z,5.50
2022-11-19T16:18:30.637Z,5.50
2022-11-19T16:20:57.660Z,5.50
2022-11-19T16:23:25.512Z,5.50
2022-11-19T16:25:53.283Z,5.50
2022-11-19T16:28:23.878Z,5.50
2022-11-19T16:30:59.677Z,5.50
2022-11-19T16:33:28.371Z,5.60
2022-11-19T16:36:12.883Z,5.60
2022-11-19T16:38:42.537Z,5.60
2022-11-19T16:41:42.405Z,5.60
2022-11-19T16:44:14.452Z,5.60
2022-11-19T16:46:41.320Z,5.60
2022-11-19T16:49:50.461Z,5.60
2022-11-19T16:52:32.423Z,5.60
2022-11-19T16:55:00.419Z,5.70
2022-11-19T16:57:29.475Z,5.60
2022-11-19T17:00:02.026Z,5.70
2022-11-19T17:02:31.657Z,5.70
2022-11-19T17:05:07.315Z,5.70
2022-11-19T17:07:34.667Z,5.70
2022-11-19T17:10:13.313Z,5.70
2022-11-19T17:12:53.500Z,5.70
2022-11-19T17:15:40.443Z,5.60
2022-11-19T17:18:10.176Z,5.60
2022-11-19T17:20:36.757Z,5.60
2022-11-19T17:23:15.308Z,5.60
2022-11-19T17:25:57.248Z,5.50
2022-11-19T17:28:45.160Z,5.50
2022-11-19T17:31:17.792Z,5.50
2022-11-19T17:33:56.791Z,5.50
2022-11-19T17:36:27.681Z,5.50
2022-11-19T17:38:54.576Z,5.40
2022-11-19T17:41:46.768Z,5.40
2022-11-19T17:44:36.440Z,5.50
2022-11-19T17:47:21.096Z,5.40
2022-11-19T17:49:49.371Z,5.40
2022-11-19T17:52:24.894Z,5.40
2022-11-19T17:54:53.652Z,5.40
2022-11-19T17:57:20.440Z,5.40
2022-11-19T17:59:47.107Z,5.40
2022-11-19T18:02:16.022Z,5.40
2022-11-19T18:04:44.254Z,5.40
2022-11-19T18:07:11.938Z,5.40
2022-11-19T18:09:39.630Z,5.40
2022-11-19T18:12:12.172Z,5.30
2022-11-19T18:14:38.944Z,5.30
2022-11-19T18:17:05.632Z,5.30
2022-11-19T18:19:32.444Z,5.30
2022-11-19T18:21:59.128Z,5.30
2022-11-19T18:24:25.957Z,5.30
2022-11-19T18:26:52.588Z,5.20
2022-11-19T18:29:19.868Z,5.20
2022-11-19T18:31:49.475Z,5.20
2022-11-19T18:34:22.476Z,5.20
2022-11-19T18:36:50.088Z,5.10
2022-11-19T18:39:16.944Z,5.10
2022-11-19T18:41:43.520Z,5.10
2022-11-19T18:44:33.406Z,5.10
2022-11-19T18:47:04.657Z,5.10
2022-11-19T18:49:33.396Z,5.00
2022-11-19T18:52:01.159Z,5.00
2022-11-19T18:54:27.881Z,5.00
2022-11-19T18:56:54.624Z,4.90
2022-11-19T18:59:21.852Z,4.90
2022-11-19T19:01:49.090Z,4.90
2022-11-19T19:04:15.954Z,4.90
2022-11-19T19:06:42.558Z,4.90
2022-11-19T19:09:11.055Z,4.90
2022-11-19T19:11:56.777Z,4.90
2022-11-19T19:14:23.695Z,4.90
2022-11-19T19:16:50.948Z,4.90
2022-11-19T19:19:19.990Z,4.90
2022-11-19T19:21:47.340Z,4.90
2022-11-19T19:24:14.550Z,4.90
2022-11-19T19:26:41.283Z,4.90
2022-11-19T19:29:08.386Z,4.90
2022-11-19T19:31:35.419Z,4.90
2022-11-19T19:34:02.088Z,5.00
2022-11-19T19:36:29.191Z,5.00
2022-11-19T19:38:55.992Z,5.00
2022-11-19T19:41:25.189Z,5.10
2022-11-19T19:43:54.841Z,5.10
2022-11-19T19:46:23.329Z,5.10
2022-11-19T19:48:52.412Z,5.10
2022-11-19T19:51:20.594Z,5.20
2022-11-19T19:53:48.091Z,5.20
2022-11-19T19:56:18.746Z,5.20
2022-11-19T19:58:47.040Z,5.20
2022-11-19T20:01:20.009Z,5.20
2022-11-19T20:03:53.080Z,5.20
2022-11-19T20:06:23.104Z,5.20
2022-11-19T20:08:49.811Z,5.20
2022-11-19T20:11:19.170Z,5.20
2022-11-19T20:13:46.468Z,5.20
2022-11-19T20:16:18.243Z,5.20
2022-11-19T20:18:46.438Z,5.20
2022-11-19T20:21:16.320Z,5.20
2022-11-19T20:23:43.259Z,5.30
2022-11-19T20:26:12.932Z,5.20
2022-11-19T20:28:39.849Z,5.20
2022-11-19T20:31:12.318Z,5.20
2022-11-19T20:33:40.130Z,5.20
2022-11-19T20:36:12.767Z,5.30
2022-11-19T20:38:41.331Z,5.30
2022-11-19T20:41:32.855Z,5.30
2022-11-19T20:44:19.988Z,5.30
2022-11-19T20:46:47.090Z,5.30
2022-11-19T20:49:16.865Z,5.40
2022-11-19T20:51:44.812Z,5.40
2022-11-19T20:54:12.303Z,5.40
2022-11-19T20:56:39.921Z,5.40
2022-11-19T20:59:06.660Z,5.30
2022-11-19T21:01:33.498Z,5.30
2022-11-19T21:04:00.343Z,5.30
2022-11-19T21:06:27.155Z,5.30
2022-11-19T21:08:53.840Z,5.30
2022-11-19T21:11:20.817Z,5.30
2022-11-19T21:13:47.517Z,5.30
2022-11-19T21:16:16.780Z,5.30
2022-11-19T21:18:44.026Z,5.30
2022-11-19T21:21:13.308Z,5.40
2022-11-19T21:23:40.587Z,5.30
2022-11-19T21:26:17.026Z,5.30
2022-11-19T21:28:46.607Z,5.30
2022-11-19T21:31:14.551Z,5.30
2022-11-19T21:33:41.500Z,5.30
2022-11-19T21:36:08.970Z,5.30
2022-11-19T21:38:36.312Z,5.30
2022-11-19T21:41:03.570Z,5.20
2022-11-19T21:43:30.555Z,5.20
2022-11-19T21:45:57.407Z,5.20
2022-11-19T21:48:27.241Z,5.20
2022-11-19T21:50:53.984Z,5.20
2022-11-19T21:53:21.053Z,5.20
2022-11-19T21:55:49.141Z,5.20
2022-11-19T21:58:16.544Z,5.20
2022-11-19T22:00:44.144Z,5.20
2022-11-19T22:03:10.842Z,5.10
2022-11-19T22:05:37.504Z,5.10
2022-11-19T22:08:04.268Z,5.10
2022-11-19T22:10:31.020Z,5.00
2022-11-19T22:12:58.752Z,5.00
2022-11-19T22:15:26.220Z,5.00
2022-11-19T22:17:53.227Z,5.00
2022-11-19T22:20:19.989Z,5.00
2022-11-19T22:22:46.709Z,4.90
2022-11-19T22:25:14.014Z,4.90
2022-11-19T22:27:41.638Z,4.90
2022-11-19T22:30:10.002Z,4.90
2022-11-19T22:32:36.927Z,4.90
2022-11-19T22:35:03.903Z,4.90
2022-11-19T22:37:30.587Z,4.90
2022-11-19T22:39:57.270Z,4.90
2022-11-19T22:42:23.872Z,4.90
2022-11-19T22:44:51.513Z,4.90
2022-11-19T22:47:18.185Z,4.90
2022-11-19T22:49:44.958Z,5.00
2022-11-19T22:52:11.603Z,4.90
2022-11-19T22:54:41.561Z,5.00
2022-11-19T22:57:09.198Z,5.00
2022-11-19T22:59:35.970Z,5.00
2022-11-19T23:02:02.663Z,5.00
2022-11-19T23:04:29.439Z,5.00
2022-11-19T23:06:56.328Z,5.00
2022-11-19T23:09:23.543Z,5.00
2022-11-19T23:12:08.925Z,5.00
2022-11-19T23:14:35.697Z,5.00
2022-11-19T23:17:02.403Z,5.00
2022-11-19T23:19:29.178Z,5.00
2022-11-19T23:21:55.903Z,5.00
2022-11-19T23:24:22.723Z,5.00
2022-11-19T23:26:49.290Z,5.00
2022-11-19T23:29:16.037Z,5.00
2022-11-19T23:31:42.672Z,5.00
2022-11-19T23:34:09.424Z,5.00
2022-11-19T23:36:37.402Z,5.00
2022-11-19T23:39:05.065Z,5.00
2022-11-19T23:41:33.686Z,5.00
2022-11-19T23:44:00.765Z,5.00
2022-11-19T23:46:30.566Z,5.00
2022-11-19T23:48:58.521Z,4.90
2022-11-19T23:51:30.797Z,4.90
2022-11-19T23:53:58.243Z,5.00
2022-11-19T23:56:26.306Z,4.90
2022-11-19T23:58:53.330Z,4.90
